Time;durP1;ratioP1;P1;durP2;ratioP2;P2;SDS_P1;SDS_P2;PMS_P1;PMS_P2;Temp;Humidity;BMP_temperature;BMP_pressure;BME280_temperature;BME280_humidity;BME280_pressure;Samples;Min_cycle;Max_cycle;Signal;HPM_P1;HPM_P2
2024/03/31 00:00:05;;;;;;;6.32;3.42;;;;;;;16.07;46.02;99640.19;5012499;28;20095;-65
2024/03/31 00:02:38;;;;;;;7.13;4.00;;;;;;;16.08;46.08;99636.47;5035766;28;20037;-64
2024/03/31 00:05:04;;;;;;;10.60;4.03;;;;;;;16.09;46.54;99635.41;4995883;28;20064;-65
2024/03/31 00:07:30;;;;;;;7.43;3.33;;;;;;;16.08;46.38;99622.94;5035473;28;20030;-64
2024/03/31 00:09:56;;;;;;;5.15;3.50;;;;;;;16.04;45.63;99627.91;5027717;28;20523;-65
2024/03/31 00:12:21;;;;;;;5.10;3.40;;;;;;;16.01;46.61;99624.75;5034157;28;20029;-65
2024/03/31 00:14:47;;;;;;;4.35;3.03;;;;;;;15.99;45.16;99621.41;5026212;28;20507;-64
2024/03/31 00:17:12;;;;;;;3.58;2.38;;;;;;;15.92;46.74;99617.78;5033094;28;20111;-65
2024/03/31 00:19:38;;;;;;;2.95;2.22;;;;;;;15.84;45.62;99628.72;5036255;28;20033;-65
2024/03/31 00:22:04;;;;;;;5.60;3.35;;;;;;;15.78;46.27;99629.47;5020879;28;20048;-65
2024/03/31 00:24:30;;;;;;;3.78;2.55;;;;;;;15.73;45.27;99649.81;5004600;28;20068;-65
2024/03/31 00:26:55;;;;;;;4.05;2.92;;;;;;;15.59;46.29;99653.38;5020889;28;20043;-65
2024/03/31 00:29:21;;;;;;;8.90;3.22;;;;;;;15.63;45.06;99668.16;5020576;28;20045;-65
2024/03/31 00:31:46;;;;;;;4.70;3.03;;;;;;;15.57;45.80;99663.53;5004222;28;20040;-65
2024/03/31 00:34:13;;;;;;;7.70;3.92;;;;;;;15.54;46.87;99672.03;5037164;28;20048;-66
2024/03/31 00:36:38;;;;;;;4.53;3.20;;;;;;;15.52;45.56;99684.03;5037173;28;20037;-66
2024/03/31 00:39:05;;;;;;;6.72;3.58;;;;;;;15.50;45.95;99680.66;5036999;28;20043;-65
2024/03/31 00:41:30;;;;;;;6.97;3.45;;;;;;;15.48;46.30;99686.28;5020594;28;20045;-64
2024/03/31 00:43:56;;;;;;;4.70;3.15;;;;;;;15.46;46.52;99685.63;5037074;28;20117;-64
2024/03/31 00:46:21;;;;;;;4.90;3.70;;;;;;;15.45;46.22;99683.06;5020313;28;20029;-65
2024/03/31 00:48:47;;;;;;;4.95;3.55;;;;;;;15.44;45.70;99670.59;5020566;28;20091;-64
2024/03/31 00:51:12;;;;;;;5.75;3.63;;;;;;;15.45;46.56;99678.50;4975633;28;20029;-65
2024/03/31 00:53:38;;;;;;;5.15;4.07;;;;;;;15.46;46.79;99674.84;5011876;28;20037;-65
2024/03/31 00:56:04;;;;;;;7.40;3.88;;;;;;;15.47;46.51;99670.25;4984391;28;20444;-65
2024/03/31 00:58:30;;;;;;;5.65;3.85;;;;;;;15.47;47.02;99665.69;4983805;28;20037;-64
2024/03/31 01:00:55;;;;;;;6.57;4.10;;;;;;;15.48;46.14;99651.19;5018647;28;20033;-64
2024/03/31 01:03:27;;;;;;;6.53;3.75;;;;;;;15.50;46.00;99654.53;5004276;28;20038;-64
2024/03/31 01:05:54;;;;;;;6.72;4.63;;;;;;;15.51;46.38;99649.97;5024586;28;20052;-64
2024/03/31 01:08:19;;;;;;;7.35;4.18;;;;;;;15.51;45.59;99647.25;5018711;28;20034;-64
2024/03/31 01:10:46;;;;;;;7.32;4.03;;;;;;;15.53;45.58;99647.91;5000920;28;20037;-64
2024/03/31 01:13:12;;;;;;;5.82;3.40;;;;;;;15.51;47.40;99640.00;5000406;28;20448;-65
2024/03/31 01:15:37;;;;;;;5.43;3.88;;;;;;;15.52;46.28;99647.06;5000077;28;20044;-64
2024/03/31 01:18:03;;;;;;;4.57;3.42;;;;;;;15.55;46.43;99630.50;5034075;28;20033;-64
2024/03/31 01:20:29;;;;;;;10.95;4.93;;;;;;;15.57;47.17;99639.25;4999991;28;20088;-66
2024/03/31 01:22:55;;;;;;;9.55;3.97;;;;;;;15.58;47.53;99640.91;4983686;28;20033;-64
2024/03/31 01:25:20;;;;;;;6.20;4.18;;;;;;;15.57;46.68;99638.41;4983844;28;20052;-65
2024/03/31 01:27:46;;;;;;;7.03;4.20;;;;;;;15.56;46.22;99651.06;5033694;28;20095;-65
2024/03/31 01:30:12;;;;;;;5.65;4.28;;;;;;;15.57;46.73;99639.25;5016326;28;20084;-65
2024/03/31 01:32:37;;;;;;;8.73;5.35;;;;;;;15.56;46.45;99639.44;4999727;28;20070;-64
2024/03/31 01:35:03;;;;;;;11.10;5.25;;;;;;;15.59;46.46;99650.69;5033668;28;20508;-64
2024/03/31 01:37:29;;;;;;;8.73;5.28;;;;;;;15.63;47.29;99651.97;5015862;28;20041;-65
2024/03/31 01:39:54;;;;;;;7.80;5.32;;;;;;;15.66;46.66;99656.97;4999733;28;20061;-64
2024/03/31 01:42:21;;;;;;;10.75;5.10;;;;;;;15.68;46.85;99641.44;4999471;28;20070;-64
2024/03/31 01:44:47;;;;;;;10.05;5.55;;;;;;;15.71;47.58;99638.38;5016000;28;20037;-64
2024/03/31 01:47:12;;;;;;;8.75;5.78;;;;;;;15.79;47.59;99641.97;4999599;28;20491;-65
2024/03/31 01:49:38;;;;;;;9.07;5.95;;;;;;;15.85;46.98;99635.81;4999496;28;20509;-65
2024/03/31 01:52:04;;;;;;;11.57;6.15;;;;;;;15.89;47.72;99618.16;5015788;28;20152;-64
2024/03/31 01:54:29;;;;;;;10.23;6.22;;;;;;;15.93;47.46;99600.56;5016084;28;20080;-65
2024/03/31 01:56:55;;;;;;;11.07;6.30;;;;;;;16.00;47.39;99612.25;4983363;28;20515;-65
2024/03/31 01:59:20;;;;;;;11.02;7.22;;;;;;;15.99;47.98;99611.44;4983274;28;20112;-66
2024/03/31 02:01:46;;;;;;;11.93;7.30;;;;;;;16.04;47.67;99605.44;5015995;28;20045;-70
2024/03/31 02:04:11;;;;;;;9.32;5.78;;;;;;;16.06;47.17;99606.06;4999604;28;20113;-70
2024/03/31 02:06:37;;;;;;;10.40;5.90;;;;;;;16.11;47.87;99609.03;4999394;28;20115;-70
2024/03/31 02:09:02;;;;;;;9.02;5.93;;;;;;;16.12;47.17;99613.41;4999383;28;20175;-70
2024/03/31 02:11:28;;;;;;;11.05;7.00;;;;;;;16.17;48.03;99608.25;5015617;28;20497;-70
2024/03/31 02:13:53;;;;;;;11.77;6.70;;;;;;;16.19;47.59;99595.41;4999088;28;20068;-70
2024/03/31 02:16:20;;;;;;;9.93;5.72;;;;;;;16.19;47.65;99580.00;4998818;28;20034;-70
2024/03/31 02:18:46;;;;;;;11.98;6.75;;;;;;;16.22;47.02;99573.38;5015788;28;20040;-70
2024/03/31 02:21:12;;;;;;;12.25;6.97;;;;;;;16.26;47.69;99574.66;5015381;28;20397;-70
2024/03/31 02:23:38;;;;;;;11.40;6.07;;;;;;;16.21;47.34;99553.66;5033203;28;20057;-70
2024/03/31 02:26:04;;;;;;;11.70;5.47;;;;;;;16.27;47.68;99570.94;4998872;28;20076;-69
2024/03/31 02:28:31;;;;;;;8.73;5.40;;;;;;;16.28;47.75;99578.84;5015235;28;20215;-70
2024/03/31 02:30:56;;;;;;;10.75;6.45;;;;;;;16.29;48.07;99594.03;4999143;28;20037;-70
2024/03/31 02:33:22;;;;;;;11.77;7.28;;;;;;;16.31;47.98;99596.53;4983315;28;20171;-70
2024/03/31 02:35:47;;;;;;;11.13;6.28;;;;;;;16.34;48.11;99590.72;4999240;28;20409;-70
2024/03/31 02:38:13;;;;;;;10.82;6.68;;;;;;;16.37;48.25;99587.63;4998936;28;20038;-70
2024/03/31 02:40:38;;;;;;;10.80;6.28;;;;;;;16.38;47.78;99593.88;4982690;28;20565;-70
2024/03/31 02:43:04;;;;;;;10.30;6.32;;;;;;;16.40;47.64;99603.47;4998775;28;20555;-70
2024/03/31 02:45:30;;;;;;;11.43;6.75;;;;;;;16.42;47.57;99617.59;4982903;28;20033;-70
2024/03/31 02:47:56;;;;;;;10.43;6.18;;;;;;;16.43;48.38;99621.16;5015328;28;20084;-70
2024/03/31 02:50:21;;;;;;;11.73;6.22;;;;;;;16.43;47.47;99619.28;4999214;28;20057;-70
2024/03/31 02:52:47;;;;;;;10.05;6.07;;;;;;;16.39;47.75;99601.78;4982741;28;20397;-70
2024/03/31 02:55:12;;;;;;;11.50;6.57;;;;;;;16.45;48.44;99611.81;4999007;28;20057;-70
2024/03/31 02:57:38;;;;;;;10.77;6.22;;;;;;;16.44;48.69;99610.16;5015244;28;20048;-70
2024/03/31 03:00:04;;;;;;;13.57;6.10;;;;;;;16.44;48.53;99591.22;4998608;28;20033;-70
2024/03/31 03:02:30;;;;;;;11.10;5.93;;;;;;;16.45;47.90;99592.88;5015164;28;20445;-70
2024/03/31 03:04:55;;;;;;;11.60;6.90;;;;;;;16.45;48.64;99595.59;4998788;28;20045;-70
2024/03/31 03:07:21;;;;;;;12.98;6.47;;;;;;;16.43;48.28;99592.25;5015286;28;20083;-70
2024/03/31 03:09:46;;;;;;;13.95;6.50;;;;;;;16.46;48.83;99593.72;4998774;28;20068;-70
2024/03/31 03:12:14;;;;;;;10.27;5.78;;;;;;;16.42;48.50;99587.88;4998880;28;20516;-64
2024/03/31 03:14:39;;;;;;;10.35;6.03;;;;;;;16.48;48.39;99595.19;5032530;28;20069;-64
2024/03/31 03:17:07;;;;;;;11.23;6.53;;;;;;;16.50;48.54;99597.72;5014900;28;20040;-65
2024/03/31 03:19:33;;;;;;;11.35;6.43;;;;;;;16.51;48.65;99600.22;4998630;28;20051;-64
2024/03/31 03:21:59;;;;;;;12.05;7.03;;;;;;;16.50;48.10;99601.22;5001090;28;20451;-64
2024/03/31 03:24:24;;;;;;;12.25;6.47;;;;;;;16.48;48.66;99583.53;5002251;28;20030;-64
2024/03/31 03:26:50;;;;;;;11.57;7.07;;;;;;;16.44;48.17;99585.81;5002156;28;20038;-65
2024/03/31 03:29:17;;;;;;;11.15;6.18;;;;;;;16.44;48.78;99560.66;5014873;28;20045;-64
2024/03/31 03:31:43;;;;;;;10.48;6.85;;;;;;;16.43;48.96;99546.31;4985849;28;20033;-64
2024/03/31 03:34:09;;;;;;;11.02;6.43;;;;;;;16.41;49.14;99559.19;5018166;28;20044;-64
2024/03/31 03:36:34;;;;;;;10.65;6.13;;;;;;;16.37;48.62;99541.69;5002086;28;20087;-64
2024/03/31 03:39:00;;;;;;;11.02;6.43;;;;;;;16.37;49.60;99549.78;5018172;28;20037;-65
2024/03/31 03:41:32;;;;;;;10.60;6.82;;;;;;;16.35;49.02;99538.34;4986508;28;20533;-64
2024/03/31 03:43:58;;;;;;;10.98;6.13;;;;;;;16.35;48.73;99521.28;5035888;28;20037;-64
2024/03/31 03:46:24;;;;;;;11.38;6.68;;;;;;;16.39;49.62;99536.91;5018105;28;20021;-64
2024/03/31 03:48:49;;;;;;;11.77;6.80;;;;;;;16.40;48.49;99525.06;5001721;28;20516;-64
2024/03/31 03:51:15;;;;;;;11.20;6.25;;;;;;;16.42;48.95;99530.25;5001607;28;20040;-64
2024/03/31 03:53:41;;;;;;;12.80;6.88;;;;;;;16.41;49.89;99534.88;5001644;28;20029;-64
2024/03/31 03:56:07;;;;;;;12.30;6.15;;;;;;;16.42;49.16;99531.09;5017893;28;20113;-64
2024/03/31 03:58:33;;;;;;;9.70;6.22;;;;;;;16.42;48.26;99524.84;5001687;28;20045;-65
2024/03/31 04:00:59;;;;;;;14.38;7.57;;;;;;;16.40;48.63;99522.38;4985387;28;20057;-64
2024/03/31 04:03:24;;;;;;;9.88;6.07;;;;;;;16.44;48.80;99533.63;5001393;28;20472;-64
2024/03/31 04:05:54;;;;;;;12.82;6.78;;;;;;;16.42;49.64;99536.50;5001421;28;20408;-64
2024/03/31 04:08:20;;;;;;;11.85;7.15;;;;;;;16.42;49.50;99527.56;4985397;28;20029;-64
2024/03/31 04:10:46;;;;;;;15.35;7.07;;;;;;;16.43;48.87;99530.09;5017693;28;20047;-65
2024/03/31 04:13:12;;;;;;;11.70;7.43;;;;;;;16.46;48.73;99518.88;4985356;28;20485;-64
2024/03/31 04:15:38;;;;;;;12.93;6.57;;;;;;;16.45;48.85;99519.91;5001295;28;20075;-65
2024/03/31 04:18:04;;;;;;;10.13;6.30;;;;;;;16.47;49.23;99517.03;5001362;28;20037;-64
2024/03/31 04:20:31;;;;;;;11.27;6.50;;;;;;;16.48;49.04;99510.56;5001346;28;20396;-64
2024/03/31 04:22:56;;;;;;;9.57;6.47;;;;;;;16.51;49.04;99513.69;5001125;28;20034;-64
2024/03/31 04:25:22;;;;;;;13.15;6.20;;;;;;;16.51;48.91;99513.69;5001030;28;20045;-64
2024/03/31 04:27:47;;;;;;;12.02;6.40;;;;;;;16.53;49.19;99527.88;5000750;28;20030;-65
2024/03/31 04:30:13;;;;;;;11.27;6.30;;;;;;;16.54;48.83;99517.91;5001184;28;20038;-64
2024/03/31 04:32:39;;;;;;;9.90;5.70;;;;;;;16.46;48.52;99516.19;5033627;28;20167;-65
2024/03/31 04:35:04;;;;;;;9.27;6.50;;;;;;;16.50;49.03;99516.63;5017061;28;20104;-65
2024/03/31 04:37:30;;;;;;;13.30;6.10;;;;;;;16.46;48.77;99494.56;5016960;28;20034;-64
2024/03/31 04:39:56;;;;;;;10.52;6.70;;;;;;;16.44;49.69;99496.63;5016809;28;20045;-64
2024/03/31 04:42:21;;;;;;;13.27;6.15;;;;;;;16.46;50.08;99504.53;5001004;28;20022;-65
2024/03/31 04:44:50;;;;;;;10.00;5.53;;;;;;;16.46;49.17;99505.38;5000634;28;20047;-64
2024/03/31 04:47:15;;;;;;;7.75;4.88;;;;;;;16.49;49.75;99501.44;4984534;28;20029;-65
2024/03/31 04:49:42;;;;;;;12.30;5.03;;;;;;;16.49;49.53;99488.75;4984309;28;20098;-64
2024/03/31 04:52:08;;;;;;;9.25;5.22;;;;;;;16.47;49.18;99493.50;5000409;28;20370;-65
2024/03/31 04:54:34;;;;;;;12.75;4.78;;;;;;;16.45;49.40;99492.03;4984545;28;20441;-64
2024/03/31 04:57:00;;;;;;;7.35;4.63;;;;;;;16.46;49.84;99491.84;4984454;28;20053;-64
2024/03/31 04:59:25;;;;;;;10.38;4.47;;;;;;;16.44;49.77;99488.53;5016871;28;20038;-64
2024/03/31 05:01:51;;;;;;;7.75;3.70;;;;;;;16.41;49.28;99491.63;5000617;28;20104;-64
2024/03/31 05:04:16;;;;;;;12.80;4.72;;;;;;;16.38;50.30;99486.59;5000577;28;20033;-65
2024/03/31 05:06:41;;;;;;;5.45;3.47;;;;;;;16.37;49.02;99479.53;5017366;28;20033;-64
2024/03/31 05:09:07;;;;;;;8.02;4.40;;;;;;;16.36;48.89;99474.34;5000996;28;20060;-64
2024/03/31 05:11:33;;;;;;;7.38;3.72;;;;;;;16.33;49.44;99477.44;5035915;28;20025;-64
2024/03/31 05:14:00;;;;;;;10.23;3.80;;;;;;;16.35;49.14;99480.75;4986840;28;20124;-64
2024/03/31 05:16:27;;;;;;;4.88;2.95;;;;;;;16.34;49.92;99493.44;5003728;28;20052;-64
2024/03/31 05:18:54;;;;;;;5.18;3.08;;;;;;;16.33;49.11;99480.97;5002001;28;20037;-64
2024/03/31 05:21:20;;;;;;;5.40;3.00;;;;;;;16.32;48.88;99482.00;5018515;28;20045;-65
2024/03/31 05:23:46;;;;;;;5.72;2.78;;;;;;;16.30;49.15;99471.38;5000693;28;20084;-64
2024/03/31 05:26:16;;;;;;;10.32;2.67;;;;;;;16.32;49.18;99487.41;4988169;28;20030;-64
2024/03/31 05:28:45;;;;;;;6.70;2.67;;;;;;;16.28;49.99;99476.16;5003061;28;20037;-64
2024/03/31 05:31:10;;;;;;;6.00;2.92;;;;;;;16.31;49.61;99477.63;5019871;28;20038;-64
2024/03/31 05:33:52;;;;;;;7.38;3.05;;;;;;;16.30;49.88;99473.25;5005434;28;20075;-64
2024/03/31 05:36:17;;;;;;;7.50;3.42;;;;;;;16.28;49.95;99481.53;5000354;28;20520;-64
2024/03/31 05:38:43;;;;;;;5.70;2.65;;;;;;;16.30;48.82;99481.38;5016209;28;20049;-64
2024/03/31 05:41:15;;;;;;;5.63;2.80;;;;;;;16.33;49.42;99483.69;5016213;28;20034;-64
2024/03/31 05:43:41;;;;;;;5.53;2.80;;;;;;;16.34;49.78;99479.91;4999482;28;20103;-64
2024/03/31 05:46:07;;;;;;;8.73;2.60;;;;;;;16.37;49.50;99479.53;5000018;28;20040;-64
2024/03/31 05:48:33;;;;;;;4.07;2.40;;;;;;;16.44;49.34;99475.00;4983463;28;20558;-64
2024/03/31 05:50:58;;;;;;;7.50;2.55;;;;;;;16.43;48.89;99478.72;4999571;28;20033;-65
2024/03/31 05:53:24;;;;;;;8.63;2.38;;;;;;;16.52;49.63;99472.13;4999546;28;20116;-64
2024/03/31 05:55:51;;;;;;;13.38;2.88;;;;;;;16.55;48.97;99485.28;4983706;28;20064;-64
2024/03/31 05:58:17;;;;;;;7.43;2.83;;;;;;;16.65;48.94;99487.59;5015622;28;20069;-64
2024/03/31 06:00:42;;;;;;;3.70;2.28;;;;;;;16.79;48.70;99475.81;5015730;28;20087;-64
2024/03/31 06:03:09;;;;;;;6.50;2.72;;;;;;;16.93;48.60;99473.97;4999529;28;20509;-65
2024/03/31 06:05:35;;;;;;;9.95;2.03;;;;;;;17.07;48.88;99476.53;4999337;28;20033;-65
2024/03/31 06:08:00;;;;;;;5.38;1.92;;;;;;;17.00;49.10;99469.44;4999245;28;20046;-65
2024/03/31 06:10:26;;;;;;;11.32;1.95;;;;;;;17.00;49.49;99474.84;4999299;28;20021;-64
2024/03/31 06:12:52;;;;;;;3.50;1.55;;;;;;;17.00;49.17;99470.25;5015330;28;20512;-64
2024/03/31 06:15:18;;;;;;;11.90;2.45;;;;;;;16.99;48.95;99478.56;4999131;28;20143;-64
2024/03/31 06:17:44;;;;;;;3.08;1.48;;;;;;;16.97;48.68;99475.25;4999211;28;20060;-64
2024/03/31 06:20:12;;;;;;;8.68;2.47;;;;;;;16.95;48.70;99477.31;4999303;28;20040;-64
2024/03/31 06:22:41;;;;;;;6.30;2.28;;;;;;;16.92;49.87;99472.31;4998991;28;20038;-64
2024/03/31 06:25:08;;;;;;;8.02;1.25;;;;;;;16.92;48.92;99478.53;5015309;28;20033;-64
2024/03/31 06:27:35;;;;;;;1.92;0.98;;;;;;;16.93;49.73;99471.28;4983130;28;20034;-64
2024/03/31 06:30:02;;;;;;;3.10;1.67;;;;;;;16.93;48.56;99473.97;4998864;28;20044;-64
2024/03/31 06:32:28;;;;;;;5.32;1.83;;;;;;;16.99;49.61;99481.28;4999009;28;20037;-64
2024/03/31 06:34:53;;;;;;;4.78;1.67;;;;;;;17.02;48.91;99486.28;4999103;28;20034;-64
2024/03/31 06:37:19;;;;;;;3.42;1.60;;;;;;;17.07;49.76;99487.34;5032897;28;20125;-64
2024/03/31 06:39:47;;;;;;;3.60;1.33;;;;;;;17.13;49.71;99486.53;5015087;28;20061;-64
2024/03/31 06:42:15;;;;;;;3.40;1.30;;;;;;;17.28;49.45;99483.66;5015360;28;20535;-65
2024/03/31 06:44:41;;;;;;;8.38;1.42;;;;;;;17.32;49.17;99476.78;4983018;28;20038;-69
2024/03/31 06:47:08;;;;;;;5.60;1.17;;;;;;;17.37;49.69;99471.59;4999452;28;20045;-69
2024/03/31 06:49:34;;;;;;;6.50;1.33;;;;;;;17.42;48.57;99475.34;4999086;28;20057;-69
2024/03/31 06:51:59;;;;;;;4.32;1.17;;;;;;;17.49;48.54;99475.34;4998800;28;20108;-69
2024/03/31 06:54:25;;;;;;;8.07;1.67;;;;;;;17.53;49.49;99484.75;4998799;28;20455;-69
2024/03/31 06:56:51;;;;;;;10.00;1.83;;;;;;;17.56;49.11;99476.22;5001385;28;20030;-69
2024/03/31 06:59:17;;;;;;;5.53;1.75;;;;;;;17.56;49.03;99470.00;5019147;28;20504;-69
2024/03/31 07:01:42;;;;;;;10.32;1.80;;;;;;;17.56;48.76;99470.78;5018149;28;20109;-69
2024/03/31 07:04:08;;;;;;;4.60;1.67;;;;;;;17.59;48.44;99473.09;5019688;28;20083;-69
2024/03/31 07:06:34;;;;;;;6.30;1.52;;;;;;;17.63;49.26;99466.22;4986730;28;20034;-69
2024/03/31 07:08:59;;;;;;;2.38;0.80;;;;;;;17.68;49.16;99466.44;4986634;28;20029;-69
2024/03/31 07:11:25;;;;;;;2.50;1.27;;;;;;;17.74;48.94;99472.91;5036744;28;20025;-68
2024/03/31 07:13:51;;;;;;;4.07;1.50;;;;;;;17.83;48.46;99467.06;5002913;28;20097;-69
2024/03/31 07:16:17;;;;;;;8.68;1.42;;;;;;;17.85;48.69;99464.97;5002748;28;20045;-69
2024/03/31 07:18:42;;;;;;;5.72;0.98;;;;;;;17.87;49.06;99465.59;5003528;28;20037;-69
2024/03/31 07:21:08;;;;;;;5.53;1.80;;;;;;;18.03;48.65;99465.16;5018988;28;20037;-69
2024/03/31 07:23:34;;;;;;;12.30;1.60;;;;;;;18.12;48.36;99454.13;5018802;28;20068;-69
2024/03/31 07:26:00;;;;;;;4.47;1.02;;;;;;;18.23;49.13;99461.59;5002536;28;20065;-70
2024/03/31 07:28:27;;;;;;;2.75;1.27;;;;;;;18.32;48.88;99449.47;4983095;28;20045;-70
2024/03/31 07:30:53;;;;;;;2.30;0.93;;;;;;;18.41;48.54;99443.59;5015265;28;20052;-70
2024/03/31 07:33:19;;;;;;;5.72;1.30;;;;;;;18.50;48.34;99453.22;5115476;23;20095;-70
2024/03/31 07:35:44;;;;;;;9.00;1.38;;;;;;;18.56;48.61;99462.38;4999685;28;20227;-70
2024/03/31 07:38:10;;;;;;;5.43;1.67;;;;;;;18.60;48.84;99466.31;4999081;28;20037;-69
2024/03/31 07:40:36;;;;;;;3.40;1.63;;;;;;;18.63;48.51;99474.03;5014972;28;20054;-70
2024/03/31 07:43:02;;;;;;;10.93;1.77;;;;;;;18.69;48.62;99473.16;4999208;28;20037;-70
2024/03/31 07:45:28;;;;;;;3.78;1.27;;;;;;;18.73;48.36;99463.56;5015158;28;20113;-70
2024/03/31 07:47:53;;;;;;;7.13;1.52;;;;;;;19.00;47.88;99462.38;5015374;28;20126;-70
2024/03/31 07:50:19;;;;;;;5.50;1.67;;;;;;;19.11;48.75;99453.56;4999168;28;20034;-71
2024/03/31 07:52:44;;;;;;;3.20;1.13;;;;;;;19.15;48.54;99457.47;5016419;28;20042;-64
2024/03/31 07:55:10;;;;;;;5.15;1.88;;;;;;;19.14;48.11;99463.97;5016079;28;20034;-67
2024/03/31 07:57:35;;;;;;;6.00;1.70;;;;;;;19.13;48.30;99453.31;5015979;28;20117;-66
2024/03/31 08:00:02;;;;;;;8.13;1.45;;;;;;;19.15;48.30;99456.66;4982329;28;20060;-66
2024/03/31 08:02:37;;;;;;;8.45;1.27;;;;;;;19.20;48.18;99451.41;4999647;28;20096;-65
2024/03/31 08:05:03;;;;;;;6.47;1.13;;;;;;;19.28;48.83;99462.00;4998500;28;20453;-65
2024/03/31 08:07:29;;;;;;;9.55;1.88;;;;;;;19.34;48.78;99454.88;5014658;28;20109;-66
2024/03/31 08:09:55;;;;;;;7.53;1.17;;;;;;;19.40;48.23;99448.59;5016213;28;20076;-66
2024/03/31 08:12:20;;;;;;;13.35;1.30;;;;;;;19.50;48.05;99451.66;5014659;28;20096;-66
2024/03/31 08:14:47;;;;;;;4.13;1.17;;;;;;;19.63;48.16;99449.66;5015727;28;20490;-67
2024/03/31 08:17:13;;;;;;;3.42;1.05;;;;;;;19.79;47.64;99442.84;5015419;28;20040;-66
2024/03/31 08:19:38;;;;;;;4.05;0.88;;;;;;;20.03;47.70;99433.00;5015633;28;20018;-66
2024/03/31 08:22:04;;;;;;;5.05;1.60;;;;;;;20.26;46.92;99439.50;5015238;28;20037;-66
2024/03/31 08:24:29;;;;;;;8.48;1.42;;;;;;;20.81;46.80;99426.69;5016016;28;20105;-66
2024/03/31 08:26:55;;;;;;;9.23;1.35;;;;;;;21.13;46.58;99419.16;5015804;28;20485;-66
2024/03/31 08:29:21;;;;;;;4.38;0.77;;;;;;;21.54;46.44;99420.19;5015331;28;20033;-66
2024/03/31 08:31:47;;;;;;;6.78;1.73;;;;;;;21.97;46.12;99418.00;4997340;28;20121;-67
2024/03/31 08:34:12;;;;;;;6.20;1.50;;;;;;;22.37;46.27;99415.34;4997382;28;20085;-66
2024/03/31 08:36:38;;;;;;;13.05;1.67;;;;;;;22.43;45.46;99409.75;4998205;28;20058;-66
2024/03/31 08:39:03;;;;;;;16.30;3.05;;;;;;;23.00;45.49;99407.13;5015520;28;20489;-67
2024/03/31 08:41:59;;;;;;;9.98;1.23;;;;;;;23.33;44.62;99398.97;5015341;28;20038;-66
2024/03/31 08:44:24;;;;;;;17.48;1.45;;;;;;;23.51;45.04;99398.78;4965204;28;20116;-68
2024/03/31 08:46:52;;;;;;;10.88;1.70;;;;;;;23.65;44.89;99397.38;5014198;28;20128;-67
2024/03/31 08:49:17;;;;;;;3.83;1.00;;;;;;;23.78;44.76;99399.75;5014986;28;20085;-68
2024/03/31 08:51:43;;;;;;;6.28;1.35;;;;;;;24.32;43.70;99391.81;5015100;28;20418;-67
2024/03/31 08:54:08;;;;;;;3.58;1.67;;;;;;;24.63;43.17;99391.13;5014374;28;20510;-67
2024/03/31 08:56:34;;;;;;;5.18;1.00;;;;;;;24.96;42.78;99383.88;5014638;28;20040;-67
2024/03/31 08:59:01;;;;;;;5.32;1.33;;;;;;;25.32;42.61;99383.13;5014681;28;20445;-69
2024/03/31 09:01:27;;;;;;;4.05;0.80;;;;;;;25.66;41.99;99381.78;4997276;28;20383;-69
2024/03/31 09:03:53;;;;;;;5.68;1.77;;;;;;;25.92;41.56;99375.41;5014599;28;20056;-69
2024/03/31 09:06:19;;;;;;;5.00;0.98;;;;;;;26.11;41.21;99366.72;4997034;28;20034;-69
2024/03/31 09:08:44;;;;;;;3.38;0.77;;;;;;;26.33;40.63;99375.66;5014640;28;20045;-69
2024/03/31 09:11:10;;;;;;;4.47;1.00;;;;;;;26.54;40.68;99374.66;4996912;28;20073;-69
2024/03/31 09:13:35;;;;;;;13.10;1.33;;;;;;;26.69;39.85;99374.69;4997043;28;20037;-69
2024/03/31 09:16:05;;;;;;;6.07;1.05;;;;;;;26.89;39.86;99385.78;4996669;28;20037;-69
2024/03/31 09:18:30;;;;;;;6.78;1.13;;;;;;;27.03;40.04;99372.34;5013571;28;20042;-69
2024/03/31 09:20:56;;;;;;;6.60;1.33;;;;;;;27.19;39.46;99385.06;5014223;28;20046;-69
2024/03/31 09:23:21;;;;;;;6.63;1.17;;;;;;;27.32;39.48;99372.69;5014148;28;20033;-70
2024/03/31 09:25:48;;;;;;;5.95;0.70;;;;;;;27.49;39.03;99363.09;5013084;28;20157;-69
2024/03/31 09:28:14;;;;;;;5.28;1.15;;;;;;;27.64;38.81;99362.25;5014463;28;20490;-69
2024/03/31 09:30:39;;;;;;;8.93;1.55;;;;;;;27.78;37.96;99368.84;5012953;28;20065;-69
2024/03/31 09:33:05;;;;;;;15.40;2.17;;;;;;;28.02;37.87;99367.16;5013768;28;20077;-69
2024/03/31 09:35:32;;;;;;;4.88;1.10;;;;;;;28.06;37.92;99367.44;5013929;28;20034;-69
2024/03/31 09:37:57;;;;;;;6.95;0.98;;;;;;;28.16;37.42;99368.28;4996620;28;20037;-68
2024/03/31 09:40:25;;;;;;;6.68;1.48;;;;;;;28.65;37.01;99362.88;5013364;28;20041;-69
2024/03/31 09:42:51;;;;;;;4.47;1.00;;;;;;;29.07;36.26;99370.63;4996272;28;20030;-69
2024/03/31 09:45:17;;;;;;;4.45;0.68;;;;;;;28.74;36.47;99374.97;5014109;28;20505;-70
2024/03/31 09:47:49;;;;;;;7.15;1.17;;;;;;;29.61;35.51;99369.69;5012166;28;20086;-70
2024/03/31 09:50:38;;;;;;;6.00;1.20;;;;;;;31.49;33.87;99365.22;5013698;28;20490;-70
2024/03/31 09:53:05;;;;;;;5.88;1.20;;;;;;;33.30;31.42;99359.97;4990873;28;20062;-69
2024/03/31 09:55:40;;;;;;;4.85;1.10;;;;;;;33.07;30.89;99355.53;4979858;28;20038;-70
2024/03/31 09:58:11;;;;;;;10.10;1.48;;;;;;;32.03;32.64;99347.13;4996071;28;20048;-70
2024/03/31 10:00:43;;;;;;;6.45;0.80;;;;;;;31.42;32.87;99355.63;4997164;28;20038;-70
2024/03/31 10:03:28;;;;;;;9.98;1.67;;;;;;;31.42;33.36;99364.75;5015209;28;20030;-69
2024/03/31 10:05:54;;;;;;;4.03;1.30;;;;;;;31.57;33.04;99356.25;4989502;28;20045;-70
2024/03/31 10:08:21;;;;;;;10.25;1.17;;;;;;;31.75;32.52;99359.25;5012945;28;20022;-69
2024/03/31 10:10:47;;;;;;;7.03;0.88;;;;;;;31.38;32.40;99349.88;4995941;28;20029;-70
2024/03/31 10:13:15;;;;;;;7.85;1.27;;;;;;;30.79;33.42;99352.41;4995376;28;20153;-70
2024/03/31 10:15:41;;;;;;;5.57;1.15;;;;;;;30.49;33.22;99357.22;4995730;28;20486;-69
2024/03/31 10:18:08;;;;;;;2.33;1.30;;;;;;;30.23;33.70;99353.09;4995826;28;20101;-70
2024/03/31 10:20:34;;;;;;;7.10;1.27;;;;;;;30.22;33.21;99351.44;5013092;28;20535;-69
2024/03/31 10:23:00;;;;;;;3.47;0.80;;;;;;;30.20;32.95;99348.16;5013545;28;20037;-68
2024/03/31 10:25:28;;;;;;;7.00;1.33;;;;;;;29.97;33.21;99340.66;5013434;28;20046;-69
2024/03/31 10:27:53;;;;;;;10.38;1.63;;;;;;;30.03;33.17;99350.56;5013316;28;20030;-67
2024/03/31 10:30:19;;;;;;;5.32;0.82;;;;;;;30.13;33.59;99350.44;5012303;28;20089;-68
2024/03/31 10:32:45;;;;;;;6.22;1.98;;;;;;;29.81;33.98;99350.22;5012720;28;20072;-68
2024/03/31 10:35:11;;;;;;;5.28;1.02;;;;;;;29.40;33.56;99339.50;5011708;28;20042;-68
2024/03/31 10:37:37;;;;;;;7.70;1.05;;;;;;;28.92;34.51;99343.16;5013093;28;20044;-68
2024/03/31 10:40:04;;;;;;;6.97;1.35;;;;;;;28.52;34.22;99348.84;4995609;28;20037;-68
2024/03/31 10:42:30;;;;;;;7.82;1.50;;;;;;;28.39;35.11;99346.72;4995302;28;20045;-68
2024/03/31 10:44:56;;;;;;;6.45;1.02;;;;;;;28.12;34.41;99345.13;4995321;28;20129;-68
2024/03/31 10:47:21;;;;;;;7.63;0.82;;;;;;;27.81;35.17;99343.50;5013040;28;20458;-68
2024/03/31 10:49:58;;;;;;;8.23;1.40;;;;;;;27.51;35.83;99338.06;4995345;28;20537;-67
2024/03/31 10:52:27;;;;;;;5.80;0.90;;;;;;;27.27;35.32;99343.25;5012803;28;20041;-68
2024/03/31 10:54:55;;;;;;;3.30;1.00;;;;;;;26.99;35.64;99343.78;4995568;28;20124;-68
2024/03/31 10:57:21;;;;;;;6.55;1.10;;;;;;;26.75;35.70;99351.66;5013246;28;20034;-67
2024/03/31 10:59:47;;;;;;;3.28;1.02;;;;;;;26.44;35.84;99349.88;4995264;28;20038;-67
2024/03/31 11:02:21;;;;;;;9.68;1.00;;;;;;;26.13;36.68;99364.56;5013701;28;20054;-67
2024/03/31 11:04:59;;;;;;;11.15;1.17;;;;;;;25.85;36.67;99352.03;5013618;28;20038;-67
2024/03/31 11:07:26;;;;;;;5.10;1.35;;;;;;;25.62;37.08;99353.25;5014697;28;20556;-68
2024/03/31 11:09:51;;;;;;;6.68;0.80;;;;;;;25.37;37.35;99344.78;5012994;28;20414;-66
2024/03/31 11:12:17;;;;;;;8.23;1.38;;;;;;;25.15;37.28;99349.53;4995737;28;20437;-66
2024/03/31 11:14:43;;;;;;;10.57;0.85;;;;;;;24.97;37.30;99347.13;4995910;28;20033;-67
2024/03/31 11:17:10;;;;;;;8.43;0.90;;;;;;;24.81;37.85;99341.53;5012943;28;20026;-67
2024/03/31 11:19:37;;;;;;;5.63;1.75;;;;;;;24.66;38.17;99351.44;5013052;28;20041;-67
2024/03/31 11:22:03;;;;;;;5.57;1.20;;;;;;;24.55;37.89;99353.22;4995629;28;20038;-67
2024/03/31 11:24:29;;;;;;;3.78;0.77;;;;;;;24.38;38.61;99346.16;4979603;28;20041;-68
2024/03/31 11:26:55;;;;;;;5.07;1.02;;;;;;;24.22;38.64;99347.91;4995148;28;20145;-66